sensor_id;sensor_type;location;lat;lon;timestamp;temperature;humidity
4435;DHT22;46552;52.150;8.428;2023-09-19T00:00:19;17.60;99.90
4435;DHT22;46552;52.150;8.428;2023-09-19T00:02:52;17.60;99.90
4435;DHT22;46552;52.150;8.428;2023-09-19T00:05:22;17.60;99.90
4435;DHT22;46552;52.150;8.428;2023-09-19T00:07:50;17.60;99.90
4435;DHT22;46552;52.150;8.428;2023-09-19T00:10:19;17.60;99.90
4435;DHT22;46552;52.150;8.428;2023-09-19T00:12:47;17.60;99.90
4435;DHT22;46552;52.150;8.428;2023-09-19T00:15:17;17.60;99.90
4435;DHT22;46552;52.150;8.428;2023-09-19T00:17:44;17.50;99.90
4435;DHT22;46552;52.150;8.428;2023-09-19T00:20:31;17.50;99.90
4435;DHT22;46552;52.150;8.428;2023-09-19T00:23:00;17.60;99.90
4435;DHT22;46552;52.150;8.428;2023-09-19T00:25:34;17.60;99.90
4435;DHT22;46552;52.150;8.428;2023-09-19T00:28:03;17.60;99.90
4435;DHT22;46552;52.150;8.428;2023-09-19T00:30:32;17.60;99.90
4435;DHT22;46552;52.150;8.428;2023-09-19T00:32:59;17.60;99.90
4435;DHT22;46552;52.150;8.428;2023-09-19T00:35:31;17.60;99.90
4435;DHT22;46552;52.150;8.428;2023-09-19T00:37:58;17.60;99.90
4435;DHT22;46552;52.150;8.428;2023-09-19T00:40:25;17.60;99.90
4435;DHT22;46552;52.150;8.428;2023-09-19T00:42:57;17.60;99.90
4435;DHT22;46552;52.150;8.428;2023-09-19T00:45:25;17.60;99.90
4435;DHT22;46552;52.150;8.428;2023-09-19T00:47:55;17.50;99.90
4435;DHT22;46552;52.150;8.428;2023-09-19T00:50:25;17.60;99.90
4435;DHT22;46552;52.150;8.428;2023-09-19T00:52:55;17.60;99.90
4435;DHT22;46552;52.150;8.428;2023-09-19T00:55:24;17.50;99.90
4435;DHT22;46552;52.150;8.428;2023-09-19T00:57:52;17.50;99.90
4435;DHT22;46552;52.150;8.428;2023-09-19T01:00:20;17.50;99.90
4435;DHT22;46552;52.150;8.428;2023-09-19T01:02:48;17.50;99.90
4435;DHT22;46552;52.150;8.428;2023-09-19T01:05:16;17.50;99.90
4435;DHT22;46552;52.150;8.428;2023-09-19T01:07:44;17.50;99.90
4435;DHT22;46552;52.150;8.428;2023-09-19T01:10:12;17.50;99.90
4435;DHT22;46552;52.150;8.428;2023-09-19T01:12:48;17.50;99.90
4435;DHT22;46552;52.150;8.428;2023-09-19T01:15:22;17.50;99.90
4435;DHT22;46552;52.150;8.428;2023-09-19T01:17:59;17.50;99.90
4435;DHT22;46552;52.150;8.428;2023-09-19T01:20:37;17.50;99.90
4435;DHT22;46552;52.150;8.428;2023-09-19T01:23:16;17.50;99.90
4435;DHT22;46552;52.150;8.428;2023-09-19T01:26:11;17.50;99.90
4435;DHT22;46552;52.150;8.428;2023-09-19T01:29:08;17.60;99.90
4435;DHT22;46552;52.150;8.428;2023-09-19T01:31:43;17.50;99.90
4435;DHT22;46552;52.150;8.428;2023-09-19T01:34:12;17.40;99.90
4435;DHT22;46552;52.150;8.428;2023-09-19T01:36:39;17.50;99.90
4435;DHT22;46552;52.150;8.428;2023-09-19T01:39:09;17.40;99.90
4435;DHT22;46552;52.150;8.428;2023-09-19T01:41:54;17.40;99.90
4435;DHT22;46552;52.150;8.428;2023-09-19T01:44:31;17.40;99.90
4435;DHT22;46552;52.150;8.428;2023-09-19T01:47:10;17.40;99.90
4435;DHT22;46552;52.150;8.428;2023-09-19T01:49:48;17.40;99.90
4435;DHT22;46552;52.150;8.428;2023-09-19T01:52:19;17.30;99.90
4435;DHT22;46552;52.150;8.428;2023-09-19T01:54:50;17.30;99.90
4435;DHT22;46552;52.150;8.428;2023-09-19T01:57:25;17.30;99.90
4435;DHT22;46552;52.150;8.428;2023-09-19T01:59:59;17.30;99.90
4435;DHT22;46552;52.150;8.428;2023-09-19T02:05:01;17.30;99.90
4435;DHT22;46552;52.150;8.428;2023-09-19T02:07:29;17.20;99.90
4435;DHT22;46552;52.150;8.428;2023-09-19T02:09:57;17.20;99.90
4435;DHT22;46552;52.150;8.428;2023-09-19T02:12:25;17.30;99.90
4435;DHT22;46552;52.150;8.428;2023-09-19T02:14:52;17.20;99.90
4435;DHT22;46552;52.150;8.428;2023-09-19T02:17:20;17.20;99.90
4435;DHT22;46552;52.150;8.428;2023-09-19T02:19:48;17.20;99.90
4435;DHT22;46552;52.150;8.428;2023-09-19T02:22:16;17.20;99.90
4435;DHT22;46552;52.150;8.428;2023-09-19T02:24:44;17.20;99.90
4435;DHT22;46552;52.150;8.428;2023-09-19T02:27:13;17.20;99.90
4435;DHT22;46552;52.150;8.428;2023-09-19T02:29:41;17.20;99.90
4435;DHT22;46552;52.150;8.428;2023-09-19T02:32:08;17.10;99.90
4435;DHT22;46552;52.150;8.428;2023-09-19T02:34:36;17.10;99.90
4435;DHT22;46552;52.150;8.428;2023-09-19T02:37:06;17.00;99.90
4435;DHT22;46552;52.150;8.428;2023-09-19T02:39:34;17.00;99.90
4435;DHT22;46552;52.150;8.428;2023-09-19T02:42:01;17.00;99.90
4435;DHT22;46552;52.150;8.428;2023-09-19T02:44:29;17.00;99.90
4435;DHT22;46552;52.150;8.428;2023-09-19T02:46:57;17.00;99.90
4435;DHT22;46552;52.150;8.428;2023-09-19T02:49:24;17.00;99.90
4435;DHT22;46552;52.150;8.428;2023-09-19T02:51:51;17.00;99.90
4435;DHT22;46552;52.150;8.428;2023-09-19T02:54:20;17.00;99.90
4435;DHT22;46552;52.150;8.428;2023-09-19T02:56:49;17.00;99.90
4435;DHT22;46552;52.150;8.428;2023-09-19T02:59:16;17.00;99.90
4435;DHT22;46552;52.150;8.428;2023-09-19T03:01:45;17.00;99.90
4435;DHT22;46552;52.150;8.428;2023-09-19T03:04:13;17.00;99.90
4435;DHT22;46552;52.150;8.428;2023-09-19T03:06:45;16.90;99.90
4435;DHT22;46552;52.150;8.428;2023-09-19T03:09:14;16.90;99.90
4435;DHT22;46552;52.150;8.428;2023-09-19T03:11:44;16.90;99.90
4435;DHT22;46552;52.150;8.428;2023-09-19T03:14:13;16.90;99.90
4435;DHT22;46552;52.150;8.428;2023-09-19T03:16:41;16.80;99.90
4435;DHT22;46552;52.150;8.428;2023-09-19T03:19:10;16.80;99.90
4435;DHT22;46552;52.150;8.428;2023-09-19T03:21:37;16.80;99.90
4435;DHT22;46552;52.150;8.428;2023-09-19T03:24:06;16.80;99.90
4435;DHT22;46552;52.150;8.428;2023-09-19T03:26:33;16.70;99.90
4435;DHT22;46552;52.150;8.428;2023-09-19T03:29:03;16.60;99.90
4435;DHT22;46552;52.150;8.428;2023-09-19T03:31:33;16.60;99.90
4435;DHT22;46552;52.150;8.428;2023-09-19T03:34:02;16.60;99.90
4435;DHT22;46552;52.150;8.428;2023-09-19T03:36:30;16.60;99.90
4435;DHT22;46552;52.150;8.428;2023-09-19T03:38:58;16.50;99.90
4435;DHT22;46552;52.150;8.428;2023-09-19T03:41:25;16.50;99.90
4435;DHT22;46552;52.150;8.428;2023-09-19T03:43:52;16.40;99.90
4435;DHT22;46552;52.150;8.428;2023-09-19T03:46:21;16.40;99.90
4435;DHT22;46552;52.150;8.428;2023-09-19T03:48:48;16.40;99.90
4435;DHT22;46552;52.150;8.428;2023-09-19T03:51:15;16.40;99.90
4435;DHT22;46552;52.150;8.428;2023-09-19T03:53:42;16.30;99.90
4435;DHT22;46552;52.150;8.428;2023-09-19T03:56:09;16.40;99.90
4435;DHT22;46552;52.150;8.428;2023-09-19T03:58:37;16.40;99.90
4435;DHT22;46552;52.150;8.428;2023-09-19T04:01:05;16.30;99.90
4435;DHT22;46552;52.150;8.428;2023-09-19T04:03:34;16.30;99.90
4435;DHT22;46552;52.150;8.428;2023-09-19T04:06:12;16.30;99.90
4435;DHT22;46552;52.150;8.428;2023-09-19T04:08:41;16.30;99.90
4435;DHT22;46552;52.150;8.428;2023-09-19T04:11:09;16.20;99.90
4435;DHT22;46552;52.150;8.428;2023-09-19T04:13:36;16.20;99.90
4435;DHT22;46552;52.150;8.428;2023-09-19T04:16:05;16.20;99.90
4435;DHT22;46552;52.150;8.428;2023-09-19T04:18:36;16.20;99.90
4435;DHT22;46552;52.150;8.428;2023-09-19T04:21:05;16.20;99.90
4435;DHT22;46552;52.150;8.428;2023-09-19T04:23:34;16.20;99.90
4435;DHT22;46552;52.150;8.428;2023-09-19T04:26:01;16.20;99.90
4435;DHT22;46552;52.150;8.428;2023-09-19T04:28:30;16.20;99.90
4435;DHT22;46552;52.150;8.428;2023-09-19T04:30:59;16.20;99.90
4435;DHT22;46552;52.150;8.428;2023-09-19T04:33:26;16.10;99.90
4435;DHT22;46552;52.150;8.428;2023-09-19T04:35:55;16.20;99.90
4435;DHT22;46552;52.150;8.428;2023-09-19T04:38:23;16.20;99.90
4435;DHT22;46552;52.150;8.428;2023-09-19T04:40:50;16.20;99.90
4435;DHT22;46552;52.150;8.428;2023-09-19T04:43:24;16.20;99.90
4435;DHT22;46552;52.150;8.428;2023-09-19T04:45:51;16.20;99.90
4435;DHT22;46552;52.150;8.428;2023-09-19T04:48:21;16.10;99.90
4435;DHT22;46552;52.150;8.428;2023-09-19T04:50:50;16.20;99.90
4435;DHT22;46552;52.150;8.428;2023-09-19T04:53:19;16.20;99.90
4435;DHT22;46552;52.150;8.428;2023-09-19T04:55:50;16.20;99.90
4435;DHT22;46552;52.150;8.428;2023-09-19T04:58:18;16.10;99.90
4435;DHT22;46552;52.150;8.428;2023-09-19T05:00:46;16.10;99.90
4435;DHT22;46552;52.150;8.428;2023-09-19T05:03:15;16.10;99.90
4435;DHT22;46552;52.150;8.428;2023-09-19T05:05:43;16.00;99.90
4435;DHT22;46552;52.150;8.428;2023-09-19T05:08:13;16.00;99.90
4435;DHT22;46552;52.150;8.428;2023-09-19T05:10:43;16.00;99.90
4435;DHT22;46552;52.150;8.428;2023-09-19T05:13:11;15.90;99.90
4435;DHT22;46552;52.150;8.428;2023-09-19T05:15:39;15.90;99.90
4435;DHT22;46552;52.150;8.428;2023-09-19T05:18:09;15.90;99.90
4435;DHT22;46552;52.150;8.428;2023-09-19T05:20:40;15.80;99.90
4435;DHT22;46552;52.150;8.428;2023-09-19T05:23:09;15.80;99.90
4435;DHT22;46552;52.150;8.428;2023-09-19T05:25:40;15.70;99.90
4435;DHT22;46552;52.150;8.428;2023-09-19T05:28:11;15.70;99.90
4435;DHT22;46552;52.150;8.428;2023-09-19T05:30:41;15.60;99.90
4435;DHT22;46552;52.150;8.428;2023-09-19T05:33:08;15.60;99.90
4435;DHT22;46552;52.150;8.428;2023-09-19T05:35:37;15.60;99.90
4435;DHT22;46552;52.150;8.428;2023-09-19T05:38:06;15.50;99.90
4435;DHT22;46552;52.150;8.428;2023-09-19T05:40:34;15.50;99.90
4435;DHT22;46552;52.150;8.428;2023-09-19T05:43:02;15.50;99.90
4435;DHT22;46552;52.150;8.428;2023-09-19T05:45:33;15.60;99.90
4435;DHT22;46552;52.150;8.428;2023-09-19T05:48:08;15.60;99.90
4435;DHT22;46552;52.150;8.428;2023-09-19T05:50:37;15.60;99.90
4435;DHT22;46552;52.150;8.428;2023-09-19T05:53:04;15.60;99.90
4435;DHT22;46552;52.150;8.428;2023-09-19T05:55:32;15.60;99.90
4435;DHT22;46552;52.150;8.428;2023-09-19T05:57:59;15.70;99.90
4435;DHT22;46552;52.150;8.428;2023-09-19T06:00:29;15.60;99.90
4435;DHT22;46552;52.150;8.428;2023-09-19T06:02:59;15.60;99.90
4435;DHT22;46552;52.150;8.428;2023-09-19T06:05:27;15.60;99.90
4435;DHT22;46552;52.150;8.428;2023-09-19T06:07:56;15.60;99.90
4435;DHT22;46552;52.150;8.428;2023-09-19T06:10:26;15.60;99.90
4435;DHT22;46552;52.150;8.428;2023-09-19T06:12:53;15.60;99.90
4435;DHT22;46552;52.150;8.428;2023-09-19T06:15:21;15.70;99.90
4435;DHT22;46552;52.150;8.428;2023-09-19T06:17:51;15.70;99.90
4435;DHT22;46552;52.150;8.428;2023-09-19T06:20:22;15.70;99.90
4435;DHT22;46552;52.150;8.428;2023-09-19T06:22:51;15.70;99.90
4435;DHT22;46552;52.150;8.428;2023-09-19T06:25:19;15.80;99.90
4435;DHT22;46552;52.150;8.428;2023-09-19T06:27:46;15.80;99.90
4435;DHT22;46552;52.150;8.428;2023-09-19T06:30:15;15.80;99.90
4435;DHT22;46552;52.150;8.428;2023-09-19T06:32:43;15.90;99.90
4435;DHT22;46552;52.150;8.428;2023-09-19T06:35:10;15.90;99.90
4435;DHT22;46552;52.150;8.428;2023-09-19T06:37:41;16.00;99.90
4435;DHT22;46552;52.150;8.428;2023-09-19T06:40:10;16.00;99.90
4435;DHT22;46552;52.150;8.428;2023-09-19T06:42:40;16.10;99.90
4435;DHT22;46552;52.150;8.428;2023-09-19T06:45:08;16.30;99.90
4435;DHT22;46552;52.150;8.428;2023-09-19T06:47:37;16.30;99.90
4435;DHT22;46552;52.150;8.428;2023-09-19T06:50:04;16.40;99.90
4435;DHT22;46552;52.150;8.428;2023-09-19T06:52:35;16.50;99.90
4435;DHT22;46552;52.150;8.428;2023-09-19T06:55:04;16.60;99.90
4435;DHT22;46552;52.150;8.428;2023-09-19T06:57:32;16.60;99.90
4435;DHT22;46552;52.150;8.428;2023-09-19T07:00:00;16.60;99.90
4435;DHT22;46552;52.150;8.428;2023-09-19T07:02:27;16.50;99.90
4435;DHT22;46552;52.150;8.428;2023-09-19T07:04:54;16.50;99.90
4435;DHT22;46552;52.150;8.428;2023-09-19T07:07:21;16.50;99.90
4435;DHT22;46552;52.150;8.428;2023-09-19T07:09:48;16.50;99.90
4435;DHT22;46552;52.150;8.428;2023-09-19T07:12:20;16.50;99.90
4435;DHT22;46552;52.150;8.428;2023-09-19T07:14:47;16.50;99.90
4435;DHT22;46552;52.150;8.428;2023-09-19T07:17:14;16.50;99.90
4435;DHT22;46552;52.150;8.428;2023-09-19T07:19:43;16.50;99.90
4435;DHT22;46552;52.150;8.428;2023-09-19T07:22:10;16.50;99.90
4435;DHT22;46552;52.150;8.428;2023-09-19T07:24:39;16.50;99.90
4435;DHT22;46552;52.150;8.428;2023-09-19T07:27:06;16.50;99.90
4435;DHT22;46552;52.150;8.428;2023-09-19T07:29:36;16.50;99.90
4435;DHT22;46552;52.150;8.428;2023-09-19T07:32:04;16.60;99.90
4435;DHT22;46552;52.150;8.428;2023-09-19T07:34:31;16.70;99.90
4435;DHT22;46552;52.150;8.428;2023-09-19T07:36:59;16.80;99.90
4435;DHT22;46552;52.150;8.428;2023-09-19T07:39:26;16.90;99.90
4435;DHT22;46552;52.150;8.428;2023-09-19T07:41:53;16.90;99.90
4435;DHT22;46552;52.150;8.428;2023-09-19T07:44:20;17.10;99.90
4435;DHT22;46552;52.150;8.428;2023-09-19T07:46:49;17.40;99.90
4435;DHT22;46552;52.150;8.428;2023-09-19T07:49:17;17.60;99.90
4435;DHT22;46552;52.150;8.428;2023-09-19T07:51:45;17.80;99.90
4435;DHT22;46552;52.150;8.428;2023-09-19T07:54:12;18.00;99.90
4435;DHT22;46552;52.150;8.428;2023-09-19T07:56:40;18.10;99.90
4435;DHT22;46552;52.150;8.428;2023-09-19T07:59:07;18.20;99.90
4435;DHT22;46552;52.150;8.428;2023-09-19T08:01:37;18.20;99.90
4435;DHT22;46552;52.150;8.428;2023-09-19T08:04:07;18.20;99.90
4435;DHT22;46552;52.150;8.428;2023-09-19T08:06:34;18.30;99.90
4435;DHT22;46552;52.150;8.428;2023-09-19T08:09:05;18.30;99.90
4435;DHT22;46552;52.150;8.428;2023-09-19T08:11:36;18.40;99.90
4435;DHT22;46552;52.150;8.428;2023-09-19T08:14:03;18.40;99.90
4435;DHT22;46552;52.150;8.428;2023-09-19T08:16:31;18.40;99.90
4435;DHT22;46552;52.150;8.428;2023-09-19T08:18:58;18.40;99.90
4435;DHT22;46552;52.150;8.428;2023-09-19T08:21:29;18.40;99.90
4435;DHT22;46552;52.150;8.428;2023-09-19T08:23:57;18.40;99.90
4435;DHT22;46552;52.150;8.428;2023-09-19T08:26:24;18.40;99.90
4435;DHT22;46552;52.150;8.428;2023-09-19T08:28:52;18.40;99.90
4435;DHT22;46552;52.150;8.428;2023-09-19T08:31:21;18.50;99.90
4435;DHT22;46552;52.150;8.428;2023-09-19T08:33:49;18.50;99.90
4435;DHT22;46552;52.150;8.428;2023-09-19T08:36:18;18.60;99.90
4435;DHT22;46552;52.150;8.428;2023-09-19T08:38:47;18.70;99.90
4435;DHT22;46552;52.150;8.428;2023-09-19T08:41:17;18.60;99.90
4435;DHT22;46552;52.150;8.428;2023-09-19T08:43:44;18.60;99.90
4435;DHT22;46552;52.150;8.428;2023-09-19T08:46:15;18.60;99.90
4435;DHT22;46552;52.150;8.428;2023-09-19T08:48:46;18.60;99.90
4435;DHT22;46552;52.150;8.428;2023-09-19T08:51:21;18.70;99.90
4435;DHT22;46552;52.150;8.428;2023-09-19T08:54:01;18.90;99.90
4435;DHT22;46552;52.150;8.428;2023-09-19T08:56:32;18.80;99.90
4435;DHT22;46552;52.150;8.428;2023-09-19T08:59:03;18.80;99.90
4435;DHT22;46552;52.150;8.428;2023-09-19T09:01:32;19.00;99.90
4435;DHT22;46552;52.150;8.428;2023-09-19T09:04:02;19.10;99.90
4435;DHT22;46552;52.150;8.428;2023-09-19T09:06:29;19.10;99.90
4435;DHT22;46552;52.150;8.428;2023-09-19T09:08:59;19.10;99.90
4435;DHT22;46552;52.150;8.428;2023-09-19T09:11:28;19.20;99.90
4435;DHT22;46552;52.150;8.428;2023-09-19T09:13:55;19.20;99.90
4435;DHT22;46552;52.150;8.428;2023-09-19T09:16:23;19.30;99.90
4435;DHT22;46552;52.150;8.428;2023-09-19T09:18:52;19.40;99.90
4435;DHT22;46552;52.150;8.428;2023-09-19T09:21:20;19.60;99.90
4435;DHT22;46552;52.150;8.428;2023-09-19T09:23:48;19.60;99.90
4435;DHT22;46552;52.150;8.428;2023-09-19T09:26:16;19.50;99.90
4435;DHT22;46552;52.150;8.428;2023-09-19T09:28:45;19.60;99.90
4435;DHT22;46552;52.150;8.428;2023-09-19T09:31:22;19.60;99.90
4435;DHT22;46552;52.150;8.428;2023-09-19T09:33:54;19.60;99.90
4435;DHT22;46552;52.150;8.428;2023-09-19T09:36:34;19.60;99.90
4435;DHT22;46552;52.150;8.428;2023-09-19T09:39:03;19.80;99.90
4435;DHT22;46552;52.150;8.428;2023-09-19T09:41:43;19.90;99.90
4435;DHT22;46552;52.150;8.428;2023-09-19T09:44:15;19.90;99.90
4435;DHT22;46552;52.150;8.428;2023-09-19T09:46:43;20.10;99.90
4435;DHT22;46552;52.150;8.428;2023-09-19T09:49:48;20.30;99.90
4435;DHT22;46552;52.150;8.428;2023-09-19T09:52:45;20.70;99.90
4435;DHT22;46552;52.150;8.428;2023-09-19T09:55:13;21.00;99.90
4435;DHT22;46552;52.150;8.428;2023-09-19T09:57:42;21.00;99.90
4435;DHT22;46552;52.150;8.428;2023-09-19T10:00:11;21.10;99.90
4435;DHT22;46552;52.150;8.428;2023-09-19T10:02:46;21.10;99.90
4435;DHT22;46552;52.150;8.428;2023-09-19T10:05:14;21.30;99.90
4435;DHT22;46552;52.150;8.428;2023-09-19T10:07:47;21.30;99.90
4435;DHT22;46552;52.150;8.428;2023-09-19T10:10:30;21.60;99.90
4435;DHT22;46552;52.150;8.428;2023-09-19T10:13:06;21.60;99.70
4435;DHT22;46552;52.150;8.428;2023-09-19T10:15:38;21.70;99.50
4435;DHT22;46552;52.150;8.428;2023-09-19T10:18:07;21.80;99.60
4435;DHT22;46552;52.150;8.428;2023-09-19T10:20:36;21.80;99.00
4435;DHT22;46552;52.150;8.428;2023-09-19T10:23:18;21.90;99.20
4435;DHT22;46552;52.150;8.428;2023-09-19T10:25:49;22.00;98.90
4435;DHT22;46552;52.150;8.428;2023-09-19T10:28:20;21.80;99.20
4435;DHT22;46552;52.150;8.428;2023-09-19T10:30:50;21.80;99.00
4435;DHT22;46552;52.150;8.428;2023-09-19T10:33:19;21.60;98.80
4435;DHT22;46552;52.150;8.428;2023-09-19T10:35:49;21.60;99.30
4435;DHT22;46552;52.150;8.428;2023-09-19T10:38:18;21.50;99.30
4435;DHT22;46552;52.150;8.428;2023-09-19T10:40:49;21.50;99.40
4435;DHT22;46552;52.150;8.428;2023-09-19T10:43:21;21.40;99.30
4435;DHT22;46552;52.150;8.428;2023-09-19T10:45:52;21.40;99.60
4435;DHT22;46552;52.150;8.428;2023-09-19T10:48:20;21.60;99.60
4435;DHT22;46552;52.150;8.428;2023-09-19T10:50:53;21.70;99.50
4435;DHT22;46552;52.150;8.428;2023-09-19T10:53:26;21.50;98.80
4435;DHT22;46552;52.150;8.428;2023-09-19T10:55:56;21.50;99.30
4435;DHT22;46552;52.150;8.428;2023-09-19T10:58:29;21.70;99.30
4435;DHT22;46552;52.150;8.428;2023-09-19T11:01:00;21.90;99.20
4435;DHT22;46552;52.150;8.428;2023-09-19T11:03:31;21.90;99.10
4435;DHT22;46552;52.150;8.428;2023-09-19T11:06:03;22.00;99.00
4435;DHT22;46552;52.150;8.428;2023-09-19T11:08:58;22.20;98.80
4435;DHT22;46552;52.150;8.428;2023-09-19T11:11:42;22.40;98.40
4435;DHT22;46552;52.150;8.428;2023-09-19T11:20:24;22.60;98.50
4435;DHT22;46552;52.150;8.428;2023-09-19T11:23:20;22.50;98.40
4435;DHT22;46552;52.150;8.428;2023-09-19T11:25:51;22.90;98.00
4435;DHT22;46552;52.150;8.428;2023-09-19T11:28:30;22.90;97.80
4435;DHT22;46552;52.150;8.428;2023-09-19T11:31:07;22.80;97.20
4435;DHT22;46552;52.150;8.428;2023-09-19T11:33:47;22.70;97.80
4435;DHT22;46552;52.150;8.428;2023-09-19T11:36:15;22.60;97.70
4435;DHT22;46552;52.150;8.428;2023-09-19T11:38:58;22.50;97.80
4435;DHT22;46552;52.150;8.428;2023-09-19T11:41:40;22.40;97.60
4435;DHT22;46552;52.150;8.428;2023-09-19T11:44:33;22.50;97.90
4435;DHT22;46552;52.150;8.428;2023-09-19T11:47:05;22.50;97.60
4435;DHT22;46552;52.150;8.428;2023-09-19T11:49:33;22.30;97.90
4435;DHT22;46552;52.150;8.428;2023-09-19T11:52:04;22.10;97.90
4435;DHT22;46552;52.150;8.428;2023-09-19T11:54:35;21.90;98.00
4435;DHT22;46552;52.150;8.428;2023-09-19T11:57:06;21.80;98.10
4435;DHT22;46552;52.150;8.428;2023-09-19T11:59:38;21.60;97.90
4435;DHT22;46552;52.150;8.428;2023-09-19T12:02:08;21.50;98.50
4435;DHT22;46552;52.150;8.428;2023-09-19T12:04:39;21.40;98.50
4435;DHT22;46552;52.150;8.428;2023-09-19T12:07:10;21.50;98.60
4435;DHT22;46552;52.150;8.428;2023-09-19T12:09:42;21.50;98.50
4435;DHT22;46552;52.150;8.428;2023-09-19T12:12:10;21.50;98.10
4435;DHT22;46552;52.150;8.428;2023-09-19T12:14:39;21.50;97.90
4435;DHT22;46552;52.150;8.428;2023-09-19T12:17:10;21.50;98.00
4435;DHT22;46552;52.150;8.428;2023-09-19T12:19:39;21.50;97.80
4435;DHT22;46552;52.150;8.428;2023-09-19T12:22:06;21.70;97.90
4435;DHT22;46552;52.150;8.428;2023-09-19T12:24:36;21.70;97.50
4435;DHT22;46552;52.150;8.428;2023-09-19T12:27:07;21.80;97.50
4435;DHT22;46552;52.150;8.428;2023-09-19T12:29:45;21.90;97.30
4435;DHT22;46552;52.150;8.428;2023-09-19T12:32:16;21.90;96.90
4435;DHT22;46552;52.150;8.428;2023-09-19T12:34:51;22.00;96.80
4435;DHT22;46552;52.150;8.428;2023-09-19T12:37:20;22.10;96.80
4435;DHT22;46552;52.150;8.428;2023-09-19T12:39:49;22.10;96.70
4435;DHT22;46552;52.150;8.428;2023-09-19T12:42:17;22.20;96.90
4435;DHT22;46552;52.150;8.428;2023-09-19T12:44:46;22.40;96.80
4435;DHT22;46552;52.150;8.428;2023-09-19T12:47:17;22.60;96.50
4435;DHT22;46552;52.150;8.428;2023-09-19T12:50:12;22.70;96.40
4435;DHT22;46552;52.150;8.428;2023-09-19T12:52:46;22.50;96.30
4435;DHT22;46552;52.150;8.428;2023-09-19T12:55:22;22.30;96.10
4435;DHT22;46552;52.150;8.428;2023-09-19T12:57:58;22.40;96.90
4435;DHT22;46552;52.150;8.428;2023-09-19T13:00:34;22.50;96.50
4435;DHT22;46552;52.150;8.428;2023-09-19T13:03:17;22.40;96.30
4435;DHT22;46552;52.150;8.428;2023-09-19T13:05:52;22.30;96.00
4435;DHT22;46552;52.150;8.428;2023-09-19T13:08:22;22.20;95.90
4435;DHT22;46552;52.150;8.428;2023-09-19T13:11:03;22.10;95.90
4435;DHT22;46552;52.150;8.428;2023-09-19T13:13:29;22.30;96.20
4435;DHT22;46552;52.150;8.428;2023-09-19T13:15:57;22.50;95.90
4435;DHT22;46552;52.150;8.428;2023-09-19T13:18:27;22.70;95.70
4435;DHT22;46552;52.150;8.428;2023-09-19T13:21:08;22.50;95.60
4435;DHT22;46552;52.150;8.428;2023-09-19T13:23:37;22.60;95.20
4435;DHT22;46552;52.150;8.428;2023-09-19T13:26:05;22.50;95.60
4435;DHT22;46552;52.150;8.428;2023-09-19T13:28:34;22.40;95.90
4435;DHT22;46552;52.150;8.428;2023-09-19T13:31:02;22.30;96.00
4435;DHT22;46552;52.150;8.428;2023-09-19T13:33:30;22.20;95.90
4435;DHT22;46552;52.150;8.428;2023-09-19T13:35:57;22.30;96.10
4435;DHT22;46552;52.150;8.428;2023-09-19T13:38:25;22.30;96.30
4435;DHT22;46552;52.150;8.428;2023-09-19T13:40:54;22.30;96.40
4435;DHT22;46552;52.150;8.428;2023-09-19T13:43:21;22.30;96.40
4435;DHT22;46552;52.150;8.428;2023-09-19T13:45:50;22.10;96.20
4435;DHT22;46552;52.150;8.428;2023-09-19T13:48:19;22.00;96.40
4435;DHT22;46552;52.150;8.428;2023-09-19T13:50:49;21.90;96.50
4435;DHT22;46552;52.150;8.428;2023-09-19T13:53:17;21.90;96.60
4435;DHT22;46552;52.150;8.428;2023-09-19T13:55:45;21.90;96.60
4435;DHT22;46552;52.150;8.428;2023-09-19T13:58:14;21.70;96.50
4435;DHT22;46552;52.150;8.428;2023-09-19T14:00:42;21.70;96.70
4435;DHT22;46552;52.150;8.428;2023-09-19T14:03:09;21.70;96.80
4435;DHT22;46552;52.150;8.428;2023-09-19T14:05:36;21.80;97.00
4435;DHT22;46552;52.150;8.428;2023-09-19T14:08:05;21.70;96.80
4435;DHT22;46552;52.150;8.428;2023-09-19T14:10:32;21.70;96.60
4435;DHT22;46552;52.150;8.428;2023-09-19T14:13:00;21.60;96.70
4435;DHT22;46552;52.150;8.428;2023-09-19T14:15:28;21.70;96.80
4435;DHT22;46552;52.150;8.428;2023-09-19T14:18:01;21.80;96.70
4435;DHT22;46552;52.150;8.428;2023-09-19T14:20:28;21.90;96.60
4435;DHT22;46552;52.150;8.428;2023-09-19T14:22:56;21.90;96.20
4435;DHT22;46552;52.150;8.428;2023-09-19T14:25:26;22.00;95.80
4435;DHT22;46552;52.150;8.428;2023-09-19T14:27:54;22.10;95.90
4435;DHT22;46552;52.150;8.428;2023-09-19T14:30:21;22.10;95.90
4435;DHT22;46552;52.150;8.428;2023-09-19T14:32:49;22.20;95.70
4435;DHT22;46552;52.150;8.428;2023-09-19T14:35:16;22.30;95.50
4435;DHT22;46552;52.150;8.428;2023-09-19T14:37:43;22.30;95.30
4435;DHT22;46552;52.150;8.428;2023-09-19T14:40:11;22.40;95.40
4435;DHT22;46552;52.150;8.428;2023-09-19T14:42:44;22.40;95.40
4435;DHT22;46552;52.150;8.428;2023-09-19T14:45:11;22.40;95.40
4435;DHT22;46552;52.150;8.428;2023-09-19T14:47:42;22.50;95.50
4435;DHT22;46552;52.150;8.428;2023-09-19T14:50:10;22.40;94.80
4435;DHT22;46552;52.150;8.428;2023-09-19T14:52:38;22.30;95.10
4435;DHT22;46552;52.150;8.428;2023-09-19T14:55:07;22.20;94.70
4435;DHT22;46552;52.150;8.428;2023-09-19T14:57:40;22.10;95.10
4435;DHT22;46552;52.150;8.428;2023-09-19T15:00:12;21.90;95.00
4435;DHT22;46552;52.150;8.428;2023-09-19T15:02:40;21.80;95.00
4435;DHT22;46552;52.150;8.428;2023-09-19T15:05:07;21.70;95.20
4435;DHT22;46552;52.150;8.428;2023-09-19T15:07:36;21.60;95.30
4435;DHT22;46552;52.150;8.428;2023-09-19T15:10:04;21.50;95.60
4435;DHT22;46552;52.150;8.428;2023-09-19T15:12:35;21.30;95.10
4435;DHT22;46552;52.150;8.428;2023-09-19T15:15:03;21.30;95.50
4435;DHT22;46552;52.150;8.428;2023-09-19T15:17:35;21.20;95.40
4435;DHT22;46552;52.150;8.428;2023-09-19T15:20:02;21.10;95.40
4435;DHT22;46552;52.150;8.428;2023-09-19T15:22:32;21.10;95.60
4435;DHT22;46552;52.150;8.428;2023-09-19T15:24:59;21.00;95.80
4435;DHT22;46552;52.150;8.428;2023-09-19T15:27:27;21.00;95.90
4435;DHT22;46552;52.150;8.428;2023-09-19T15:29:56;20.90;95.90
4435;DHT22;46552;52.150;8.428;2023-09-19T15:32:24;20.90;96.10
4435;DHT22;46552;52.150;8.428;2023-09-19T15:34:53;20.80;96.10
4435;DHT22;46552;52.150;8.428;2023-09-19T15:37:21;20.70;96.30
4435;DHT22;46552;52.150;8.428;2023-09-19T15:39:48;20.60;96.40
4435;DHT22;46552;52.150;8.428;2023-09-19T15:42:15;20.60;96.50
4435;DHT22;46552;52.150;8.428;2023-09-19T15:44:43;20.70;96.40
4435;DHT22;46552;52.150;8.428;2023-09-19T15:47:12;20.60;96.50
4435;DHT22;46552;52.150;8.428;2023-09-19T15:49:40;20.70;96.70
4435;DHT22;46552;52.150;8.428;2023-09-19T15:52:08;20.60;96.70
4435;DHT22;46552;52.150;8.428;2023-09-19T15:54:35;20.70;96.90
4435;DHT22;46552;52.150;8.428;2023-09-19T15:57:08;20.70;97.00
4435;DHT22;46552;52.150;8.428;2023-09-19T15:59:38;20.60;97.00
4435;DHT22;46552;52.150;8.428;2023-09-19T16:02:05;20.70;97.00
4435;DHT22;46552;52.150;8.428;2023-09-19T16:04:33;20.80;97.00
4435;DHT22;46552;52.150;8.428;2023-09-19T16:07:01;20.70;97.00
4435;DHT22;46552;52.150;8.428;2023-09-19T16:09:29;20.70;97.10
4435;DHT22;46552;52.150;8.428;2023-09-19T16:11:57;20.80;97.30